Time,TemperatureF,DewpointF,PressureIn,WindDirection,WindDirectionDegrees,WindSpeedMPH,WindSpeedGustMPH,Humidity,HourlyPrecipIn,Conditions,Clouds,dailyrainin,SoftwareType,DateUTC
2013-12-20 00:22:00,56.0,55.0,30.22,East,90,0.0,0.0,95,0.00,,,0.01,,2013-12-20 05:22:00,
2013-12-20 00:52:00,55.0,54.0,30.21,East,90,0.0,0.0,96,0.00,,,0.01,,2013-12-20 05:52:00,
2013-12-20 01:22:00,55.0,54.0,30.20,East,90,0.0,0.0,96,0.00,,,0.01,,2013-12-20 06:22:00,
2013-12-20 01:52:00,54.0,53.0,30.19,East,90,0.0,0.0,96,0.00,,,0.01,,2013-12-20 06:52:00,
2013-12-20 02:22:00,54.0,53.0,30.19,East,90,0.0,0.0,97,0.00,,,0.01,,2013-12-20 07:22:00,
2013-12-20 02:52:00,53.0,52.0,30.18,East,90,0.0,0.0,97,0.00,,,0.01,,2013-12-20 07:52:00,
2013-12-20 03:22:00,53.0,52.0,30.19,East,90,0.0,0.0,97,0.00,,,0.01,,2013-12-20 08:22:00,
2013-12-20 03:42:00,53.0,52.0,30.19,East,90,0.0,0.0,97,0.00,,,0.01,,2013-12-20 08:42:00,
2013-12-20 03:52:00,53.0,52.0,30.19,East,90,0.0,0.0,97,0.00,,,0.01,,2013-12-20 08:52:00,
2013-12-20 04:22:00,52.0,51.0,30.18,East,90,0.0,0.0,97,0.00,,,0.01,,2013-12-20 09:22:00,
2013-12-20 04:53:00,52.0,51.0,30.18,East,90,0.0,0.0,97,0.00,,,0.01,,2013-12-20 09:53:00,
2013-12-20 05:23:00,51.0,50.0,30.18,East,90,0.0,0.0,98,0.00,,,0.01,,2013-12-20 10:23:00,
2013-12-20 05:53:00,52.0,51.0,30.19,East,90,0.0,0.0,98,0.00,,,0.01,,2013-12-20 10:53:00,
2013-12-20 06:22:00,52.0,51.0,30.19,East,90,0.0,0.0,98,0.00,,,0.01,,2013-12-20 11:22:00,
2013-12-20 06:52:00,52.0,51.0,30.19,East,90,0.0,0.0,98,0.00,,,0.01,,2013-12-20 11:52:00,
2013-12-20 07:23:00,52.0,51.0,30.20,East,90,0.0,0.0,98,0.00,,,0.01,,2013-12-20 12:23:00,
2013-12-20 07:52:00,52.0,51.0,30.20,East,90,0.0,0.0,98,0.00,,,0.01,,2013-12-20 12:52:00,
2013-12-20 08:22:00,53.0,52.0,30.21,East,90,0.0,0.0,98,0.00,,,0.01,,2013-12-20 13:22:00,
2013-12-20 08:53:00,56.0,56.0,30.22,East,90,0.0,0.0,99,0.00,,,0.01,,2013-12-20 13:53:00,
2013-12-20 09:22:00,61.0,61.0,30.22,East,90,0.0,0.0,99,0.00,,,0.01,,2013-12-20 14:22:00,
2013-12-20 09:52:00,67.0,66.0,30.23,East,90,0.0,0.0,98,0.00,,,0.00,,2013-12-20 14:52:00,
2013-12-20 10:22:00,73.0,66.0,30.24,East,90,0.0,0.0,80,0.00,,,0.00,,2013-12-20 15:22:00,
2013-12-20 10:53:00,76.0,64.0,30.23,East,101,1.0,4.0,67,0.00,,,0.00,,2013-12-20 15:53:00,
2013-12-20 11:13:00,77.0,64.0,30.23,East,100,0.0,1.0,64,0.00,,,0.00,,2013-12-20 16:13:00,
2013-12-20 11:23:00,77.0,64.0,30.23,East,100,0.0,1.0,64,0.00,,,0.00,,2013-12-20 16:23:00,
2013-12-20 11:53:00,78.0,63.0,30.22,ESE,107,1.0,5.0,61,0.00,,,0.00,,2013-12-20 16:53:00,
2013-12-20 12:22:00,80.0,64.0,30.20,East,95,0.0,3.0,58,0.00,,,0.00,,2013-12-20 17:22:00,
2013-12-20 12:52:00,80.0,63.0,30.18,East,100,0.0,4.0,57,0.00,,,0.00,,2013-12-20 17:52:00,
2013-12-20 13:22:00,81.0,65.0,30.17,East,100,1.0,3.0,58,0.00,,,0.00,,2013-12-20 18:22:00,
2013-12-20 13:42:00,81.0,65.0,30.16,ESE,116,0.0,2.0,59,0.00,,,0.00,,2013-12-20 18:42:00,
2013-12-20 13:52:00,81.0,64.0,30.16,East,84,0.0,2.0,57,0.00,,,0.00,,2013-12-20 18:52:00,
2013-12-20 14:22:00,81.0,63.0,30.15,East,79,1.0,4.0,55,0.00,,,0.00,,2013-12-20 19:22:00,
2013-12-20 14:52:00,82.0,64.0,30.14,ENE,72,0.0,2.0,54,0.00,,,0.00,,2013-12-20 19:52:00,
2013-12-20 15:22:00,81.0,62.0,30.14,ESE,109,0.0,3.0,53,0.00,,,0.00,,2013-12-20 20:22:00,
2013-12-20 15:52:00,82.0,62.0,30.14,East,85,0.0,4.0,51,0.00,,,0.00,,2013-12-20 20:52:00,
2013-12-20 16:22:00,82.0,64.0,30.14,SSE,158,0.0,2.0,54,0.00,,,0.00,,2013-12-20 21:22:00,
2013-12-20 16:43:00,81.0,64.0,30.14,East,95,0.0,1.0,56,0.00,,,0.00,,2013-12-20 21:43:00,
2013-12-20 16:53:00,81.0,64.0,30.14,East,95,0.0,1.0,56,0.00,,,0.00,,2013-12-20 21:53:00,
2013-12-20 17:23:00,76.0,64.0,30.15,ESE,109,0.0,1.0,66,0.00,,,0.00,,2013-12-20 22:23:00,
2013-12-20 17:53:00,73.0,63.0,30.16,East,90,0.0,0.0,72,0.00,,,0.00,,2013-12-20 22:53:00,
2013-12-20 18:22:00,71.0,63.0,30.16,East,90,0.0,0.0,77,0.00,,,0.00,,2013-12-20 23:22:00,
2013-12-20 18:53:00,70.0,64.0,30.17,East,90,0.0,0.0,81,0.00,,,0.00,,2013-12-20 23:53:00,
2013-12-20 19:22:00,70.0,65.0,30.18,East,90,0.0,0.0,83,0.00,,,0.00,,2013-12-21 00:22:00,
2013-12-20 19:52:00,69.0,64.0,30.18,East,90,0.0,0.0,85,0.00,,,0.00,,2013-12-21 00:52:00,
2013-12-20 20:22:00,68.0,64.0,30.19,East,90,0.0,0.0,88,0.00,,,0.00,,2013-12-21 01:22:00,
2013-12-20 20:52:00,67.0,64.0,30.19,East,90,0.0,0.0,90,0.00,,,0.00,,2013-12-21 01:52:00,
2013-12-20 21:22:00,67.0,64.0,30.20,East,90,0.0,0.0,91,0.00,,,0.00,,2013-12-21 02:22:00,
2013-12-20 21:52:00,66.0,64.0,30.20,East,90,0.0,0.0,93,0.00,,,0.00,,2013-12-21 02:52:00,
2013-12-20 22:22:00,66.0,64.0,30.19,East,90,0.0,0.0,93,0.00,,,0.00,,2013-12-21 03:22:00,
2013-12-20 22:53:00,66.0,64.0,30.19,East,90,0.0,0.0,94,0.00,,,0.00,,2013-12-21 03:53:00,
2013-12-20 23:23:00,66.0,65.0,30.18,East,90,0.0,0.0,95,0.00,,,0.00,,2013-12-21 04:23:00,
2013-12-20 23:52:00,65.0,64.0,30.17,East,90,0.0,0.0,95,0.00,,,0.00,,2013-12-21 04:52:00,